Terminal Aerodrome Forecast
Issued by NWS

Home | Current Version | Previous Version | Text Only | Print | Product List | Glossary On
Versions: 1 2 3 4 5 6 7 8 9 10 11 12
000
FTUS43 KFGF 021724 AAA
TAFBJI
TAF AMD
KBJI 021724Z 0217/0318 11008KT P6SM FEW200
     FM022300 24005KT P6SM FEW250
     FM031300 27009KT P6SM SCT250
     FM031600 30013KT P6SM SCT200=

USA.gov is the U.S. government's official web portal to all federal, state and local government web resources and services.